sensor_id;sensor_type;location;lat;lon;timestamp;P1;durP1;ratioP1;P2;durP2;ratioP2
4452;SDS011;2239;48.152;11.584;2023-06-19T00:00:02;7.33;;;4.40;;
4452;SDS011;2239;48.152;11.584;2023-06-19T00:02:32;9.07;;;4.17;;
4452;SDS011;2239;48.152;11.584;2023-06-19T00:04:58;7.97;;;4.47;;
4452;SDS011;2239;48.152;11.584;2023-06-19T00:07:23;8.30;;;3.90;;
4452;SDS011;2239;48.152;11.584;2023-06-19T00:09:49;8.40;;;3.90;;
4452;SDS011;2239;48.152;11.584;2023-06-19T00:12:14;8.87;;;3.90;;
4452;SDS011;2239;48.152;11.584;2023-06-19T00:14:40;12.27;;;5.20;;
4452;SDS011;2239;48.152;11.584;2023-06-19T00:17:05;8.83;;;4.30;;
4452;SDS011;2239;48.152;11.584;2023-06-19T00:19:32;8.40;;;4.03;;
4452;SDS011;2239;48.152;11.584;2023-06-19T00:22:01;10.20;;;4.20;;
4452;SDS011;2239;48.152;11.584;2023-06-19T00:24:28;10.07;;;5.00;;
4452;SDS011;2239;48.152;11.584;2023-06-19T00:26:53;9.47;;;5.03;;
4452;SDS011;2239;48.152;11.584;2023-06-19T00:29:19;10.30;;;4.60;;
4452;SDS011;2239;48.152;11.584;2023-06-19T00:31:44;6.97;;;3.77;;
4452;SDS011;2239;48.152;11.584;2023-06-19T00:34:10;7.53;;;3.87;;
4452;SDS011;2239;48.152;11.584;2023-06-19T00:36:35;7.67;;;3.97;;
4452;SDS011;2239;48.152;11.584;2023-06-19T00:39:05;7.50;;;4.47;;
4452;SDS011;2239;48.152;11.584;2023-06-19T00:41:33;12.60;;;4.90;;
4452;SDS011;2239;48.152;11.584;2023-06-19T00:44:00;8.90;;;4.10;;
4452;SDS011;2239;48.152;11.584;2023-06-19T00:46:26;7.47;;;4.00;;
4452;SDS011;2239;48.152;11.584;2023-06-19T00:48:52;11.40;;;4.93;;
4452;SDS011;2239;48.152;11.584;2023-06-19T00:51:17;10.97;;;4.87;;
4452;SDS011;2239;48.152;11.584;2023-06-19T00:53:43;8.00;;;4.50;;
4452;SDS011;2239;48.152;11.584;2023-06-19T00:56:08;7.33;;;4.03;;
4452;SDS011;2239;48.152;11.584;2023-06-19T00:58:34;8.30;;;4.57;;
4452;SDS011;2239;48.152;11.584;2023-06-19T01:01:00;9.40;;;4.50;;
4452;SDS011;2239;48.152;11.584;2023-06-19T01:03:26;8.47;;;5.03;;
4452;SDS011;2239;48.152;11.584;2023-06-19T01:05:52;11.53;;;4.97;;
4452;SDS011;2239;48.152;11.584;2023-06-19T01:09:02;9.53;;;4.03;;
4452;SDS011;2239;48.152;11.584;2023-06-19T01:11:13;8.03;;;4.43;;
4452;SDS011;2239;48.152;11.584;2023-06-19T01:13:47;7.63;;;4.47;;
4452;SDS011;2239;48.152;11.584;2023-06-19T01:16:19;7.90;;;4.60;;
4452;SDS011;2239;48.152;11.584;2023-06-19T01:18:46;8.00;;;4.40;;
4452;SDS011;2239;48.152;11.584;2023-06-19T01:21:12;16.83;;;4.60;;
4452;SDS011;2239;48.152;11.584;2023-06-19T01:23:42;10.40;;;4.83;;
4452;SDS011;2239;48.152;11.584;2023-06-19T01:26:09;9.90;;;4.83;;
4452;SDS011;2239;48.152;11.584;2023-06-19T01:28:35;7.73;;;4.40;;
4452;SDS011;2239;48.152;11.584;2023-06-19T01:31:38;9.20;;;4.70;;
4452;SDS011;2239;48.152;11.584;2023-06-19T01:33:58;11.03;;;4.87;;
4452;SDS011;2239;48.152;11.584;2023-06-19T01:36:25;8.80;;;4.50;;
4452;SDS011;2239;48.152;11.584;2023-06-19T01:38:51;9.13;;;4.27;;
4452;SDS011;2239;48.152;11.584;2023-06-19T01:41:22;11.23;;;4.77;;
4452;SDS011;2239;48.152;11.584;2023-06-19T01:43:49;9.70;;;5.10;;
4452;SDS011;2239;48.152;11.584;2023-06-19T01:46:15;9.17;;;4.60;;
4452;SDS011;2239;48.152;11.584;2023-06-19T01:48:40;11.93;;;4.30;;
4452;SDS011;2239;48.152;11.584;2023-06-19T01:51:06;8.10;;;4.23;;
4452;SDS011;2239;48.152;11.584;2023-06-19T01:53:32;7.40;;;4.47;;
4452;SDS011;2239;48.152;11.584;2023-06-19T01:55:58;9.03;;;5.00;;
4452;SDS011;2239;48.152;11.584;2023-06-19T01:58:24;10.50;;;5.07;;
4452;SDS011;2239;48.152;11.584;2023-06-19T02:00:49;8.53;;;4.37;;
4452;SDS011;2239;48.152;11.584;2023-06-19T02:03:15;8.07;;;4.53;;
4452;SDS011;2239;48.152;11.584;2023-06-19T02:05:41;11.97;;;5.30;;
4452;SDS011;2239;48.152;11.584;2023-06-19T02:08:07;9.17;;;4.77;;
4452;SDS011;2239;48.152;11.584;2023-06-19T02:10:33;8.03;;;4.80;;
4452;SDS011;2239;48.152;11.584;2023-06-19T02:12:58;5.80;;;3.70;;
4452;SDS011;2239;48.152;11.584;2023-06-19T02:15:24;8.60;;;4.90;;
4452;SDS011;2239;48.152;11.584;2023-06-19T02:17:50;8.87;;;4.90;;
4452;SDS011;2239;48.152;11.584;2023-06-19T02:20:19;8.50;;;4.53;;
4452;SDS011;2239;48.152;11.584;2023-06-19T02:22:46;10.07;;;4.37;;
4452;SDS011;2239;48.152;11.584;2023-06-19T02:25:11;9.60;;;4.83;;
4452;SDS011;2239;48.152;11.584;2023-06-19T02:27:37;8.10;;;4.33;;
4452;SDS011;2239;48.152;11.584;2023-06-19T02:30:02;9.50;;;4.30;;
4452;SDS011;2239;48.152;11.584;2023-06-19T02:32:29;10.00;;;4.73;;
4452;SDS011;2239;48.152;11.584;2023-06-19T02:34:55;8.83;;;4.50;;
4452;SDS011;2239;48.152;11.584;2023-06-19T02:37:20;7.67;;;4.13;;
4452;SDS011;2239;48.152;11.584;2023-06-19T02:39:46;7.67;;;4.10;;
4452;SDS011;2239;48.152;11.584;2023-06-19T02:42:11;10.67;;;5.50;;
4452;SDS011;2239;48.152;11.584;2023-06-19T02:44:37;7.80;;;4.17;;
4452;SDS011;2239;48.152;11.584;2023-06-19T02:47:02;10.67;;;4.30;;
4452;SDS011;2239;48.152;11.584;2023-06-19T02:49:28;12.47;;;5.43;;
4452;SDS011;2239;48.152;11.584;2023-06-19T02:51:54;9.93;;;4.77;;
4452;SDS011;2239;48.152;11.584;2023-06-19T02:54:19;8.07;;;4.40;;
4452;SDS011;2239;48.152;11.584;2023-06-19T02:56:45;7.83;;;4.20;;
4452;SDS011;2239;48.152;11.584;2023-06-19T02:59:11;6.30;;;3.97;;
4452;SDS011;2239;48.152;11.584;2023-06-19T03:01:36;12.13;;;4.97;;
4452;SDS011;2239;48.152;11.584;2023-06-19T03:04:02;10.63;;;4.93;;
4452;SDS011;2239;48.152;11.584;2023-06-19T03:06:27;12.20;;;4.80;;
4452;SDS011;2239;48.152;11.584;2023-06-19T03:08:53;8.63;;;4.30;;
4452;SDS011;2239;48.152;11.584;2023-06-19T03:11:18;9.67;;;4.30;;
4452;SDS011;2239;48.152;11.584;2023-06-19T03:13:45;8.90;;;4.57;;
4452;SDS011;2239;48.152;11.584;2023-06-19T03:16:15;8.83;;;4.57;;
4452;SDS011;2239;48.152;11.584;2023-06-19T03:18:41;8.83;;;5.20;;
4452;SDS011;2239;48.152;11.584;2023-06-19T03:21:13;9.87;;;4.73;;
4452;SDS011;2239;48.152;11.584;2023-06-19T03:23:39;14.00;;;5.00;;
4452;SDS011;2239;48.152;11.584;2023-06-19T03:26:08;12.93;;;4.70;;
4452;SDS011;2239;48.152;11.584;2023-06-19T03:28:35;9.00;;;4.17;;
4452;SDS011;2239;48.152;11.584;2023-06-19T03:31:00;7.50;;;4.03;;
4452;SDS011;2239;48.152;11.584;2023-06-19T03:33:26;8.47;;;4.80;;
4452;SDS011;2239;48.152;11.584;2023-06-19T03:35:51;7.93;;;4.10;;
4452;SDS011;2239;48.152;11.584;2023-06-19T03:38:17;7.80;;;4.00;;
4452;SDS011;2239;48.152;11.584;2023-06-19T03:40:43;9.73;;;4.97;;
4452;SDS011;2239;48.152;11.584;2023-06-19T03:43:08;10.93;;;4.57;;
4452;SDS011;2239;48.152;11.584;2023-06-19T03:45:35;7.70;;;4.10;;
4452;SDS011;2239;48.152;11.584;2023-06-19T03:48:01;10.00;;;5.17;;
4452;SDS011;2239;48.152;11.584;2023-06-19T03:50:26;13.23;;;4.77;;
4452;SDS011;2239;48.152;11.584;2023-06-19T03:52:52;9.50;;;4.10;;
4452;SDS011;2239;48.152;11.584;2023-06-19T03:55:17;7.87;;;3.87;;
4452;SDS011;2239;48.152;11.584;2023-06-19T03:57:43;10.07;;;4.50;;
4452;SDS011;2239;48.152;11.584;2023-06-19T04:00:08;8.67;;;4.90;;
4452;SDS011;2239;48.152;11.584;2023-06-19T04:02:36;7.43;;;4.10;;
4452;SDS011;2239;48.152;11.584;2023-06-19T04:05:02;8.50;;;4.40;;
4452;SDS011;2239;48.152;11.584;2023-06-19T04:07:28;7.60;;;4.63;;
4452;SDS011;2239;48.152;11.584;2023-06-19T04:09:53;9.40;;;4.40;;
4452;SDS011;2239;48.152;11.584;2023-06-19T04:12:19;10.87;;;4.90;;
4452;SDS011;2239;48.152;11.584;2023-06-19T04:14:45;10.37;;;4.70;;
4452;SDS011;2239;48.152;11.584;2023-06-19T04:17:10;9.60;;;4.70;;
4452;SDS011;2239;48.152;11.584;2023-06-19T04:19:36;11.03;;;4.50;;
4452;SDS011;2239;48.152;11.584;2023-06-19T04:22:02;11.83;;;5.20;;
4452;SDS011;2239;48.152;11.584;2023-06-19T04:24:27;10.10;;;4.80;;
4452;SDS011;2239;48.152;11.584;2023-06-19T04:26:53;10.33;;;4.83;;
4452;SDS011;2239;48.152;11.584;2023-06-19T04:29:18;8.17;;;4.50;;
4452;SDS011;2239;48.152;11.584;2023-06-19T04:31:44;10.00;;;4.90;;
4452;SDS011;2239;48.152;11.584;2023-06-19T04:34:11;10.10;;;5.10;;
4452;SDS011;2239;48.152;11.584;2023-06-19T04:36:39;8.63;;;4.00;;
4452;SDS011;2239;48.152;11.584;2023-06-19T04:39:05;8.40;;;4.33;;
4452;SDS011;2239;48.152;11.584;2023-06-19T04:41:31;7.53;;;3.97;;
4452;SDS011;2239;48.152;11.584;2023-06-19T04:43:56;11.07;;;5.20;;
4452;SDS011;2239;48.152;11.584;2023-06-19T04:46:22;9.83;;;4.80;;
4452;SDS011;2239;48.152;11.584;2023-06-19T04:48:48;8.37;;;4.30;;
4452;SDS011;2239;48.152;11.584;2023-06-19T04:51:17;7.37;;;4.20;;
4452;SDS011;2239;48.152;11.584;2023-06-19T04:53:46;16.83;;;4.70;;
4452;SDS011;2239;48.152;11.584;2023-06-19T04:56:14;9.13;;;4.83;;
4452;SDS011;2239;48.152;11.584;2023-06-19T04:58:40;7.80;;;4.33;;
4452;SDS011;2239;48.152;11.584;2023-06-19T05:01:14;8.00;;;4.40;;
4452;SDS011;2239;48.152;11.584;2023-06-19T05:03:40;9.17;;;4.57;;
4452;SDS011;2239;48.152;11.584;2023-06-19T05:06:07;8.10;;;3.80;;
4452;SDS011;2239;48.152;11.584;2023-06-19T05:08:33;9.60;;;4.47;;
4452;SDS011;2239;48.152;11.584;2023-06-19T05:10:59;8.37;;;4.50;;
4452;SDS011;2239;48.152;11.584;2023-06-19T05:13:24;6.60;;;3.93;;
4452;SDS011;2239;48.152;11.584;2023-06-19T05:15:50;8.67;;;4.37;;
4452;SDS011;2239;48.152;11.584;2023-06-19T05:18:16;9.47;;;5.20;;
4452;SDS011;2239;48.152;11.584;2023-06-19T05:20:42;11.53;;;6.13;;
4452;SDS011;2239;48.152;11.584;2023-06-19T05:23:08;11.13;;;5.90;;
4452;SDS011;2239;48.152;11.584;2023-06-19T05:25:34;14.20;;;5.30;;
4452;SDS011;2239;48.152;11.584;2023-06-19T05:27:59;9.00;;;5.17;;
4452;SDS011;2239;48.152;11.584;2023-06-19T05:30:25;12.03;;;5.20;;
4452;SDS011;2239;48.152;11.584;2023-06-19T05:32:50;9.70;;;4.97;;
4452;SDS011;2239;48.152;11.584;2023-06-19T05:35:16;7.43;;;3.87;;
4452;SDS011;2239;48.152;11.584;2023-06-19T05:37:42;7.67;;;4.60;;
4452;SDS011;2239;48.152;11.584;2023-06-19T05:40:10;8.53;;;4.70;;
4452;SDS011;2239;48.152;11.584;2023-06-19T05:42:36;8.30;;;4.70;;
4452;SDS011;2239;48.152;11.584;2023-06-19T05:45:02;10.47;;;5.00;;
4452;SDS011;2239;48.152;11.584;2023-06-19T05:47:28;7.00;;;3.53;;
4452;SDS011;2239;48.152;11.584;2023-06-19T05:49:56;10.43;;;4.50;;
4452;SDS011;2239;48.152;11.584;2023-06-19T05:52:22;9.30;;;4.47;;
4452;SDS011;2239;48.152;11.584;2023-06-19T05:54:48;9.90;;;4.50;;
4452;SDS011;2239;48.152;11.584;2023-06-19T05:57:13;8.10;;;4.30;;
4452;SDS011;2239;48.152;11.584;2023-06-19T05:59:41;7.80;;;4.27;;
4452;SDS011;2239;48.152;11.584;2023-06-19T06:02:07;8.53;;;4.10;;
4452;SDS011;2239;48.152;11.584;2023-06-19T06:04:33;9.57;;;4.90;;
4452;SDS011;2239;48.152;11.584;2023-06-19T06:07:02;6.50;;;3.70;;
4452;SDS011;2239;48.152;11.584;2023-06-19T06:09:27;8.27;;;4.17;;
4452;SDS011;2239;48.152;11.584;2023-06-19T06:11:53;8.23;;;3.43;;
4452;SDS011;2239;48.152;11.584;2023-06-19T06:14:18;9.27;;;4.50;;
4452;SDS011;2239;48.152;11.584;2023-06-19T06:16:44;6.83;;;3.70;;
4452;SDS011;2239;48.152;11.584;2023-06-19T06:19:09;8.50;;;4.20;;
4452;SDS011;2239;48.152;11.584;2023-06-19T06:21:35;8.30;;;4.20;;
4452;SDS011;2239;48.152;11.584;2023-06-19T06:24:01;7.60;;;3.70;;
4452;SDS011;2239;48.152;11.584;2023-06-19T06:26:27;6.87;;;3.93;;
4452;SDS011;2239;48.152;11.584;2023-06-19T06:28:53;6.33;;;3.77;;
4452;SDS011;2239;48.152;11.584;2023-06-19T06:31:19;8.43;;;3.60;;
4452;SDS011;2239;48.152;11.584;2023-06-19T06:33:44;5.80;;;3.53;;
4452;SDS011;2239;48.152;11.584;2023-06-19T06:36:10;7.90;;;4.60;;
4452;SDS011;2239;48.152;11.584;2023-06-19T06:38:35;7.50;;;4.03;;
4452;SDS011;2239;48.152;11.584;2023-06-19T06:41:01;7.03;;;3.43;;
4452;SDS011;2239;48.152;11.584;2023-06-19T06:43:27;8.73;;;3.60;;
4452;SDS011;2239;48.152;11.584;2023-06-19T06:45:53;11.40;;;4.30;;
4452;SDS011;2239;48.152;11.584;2023-06-19T06:48:18;4.40;;;3.40;;
4452;SDS011;2239;48.152;11.584;2023-06-19T06:50:44;5.17;;;3.57;;
4452;SDS011;2239;48.152;11.584;2023-06-19T06:53:09;8.70;;;3.90;;
4452;SDS011;2239;48.152;11.584;2023-06-19T06:55:35;9.17;;;4.00;;
4452;SDS011;2239;48.152;11.584;2023-06-19T06:58:00;6.37;;;3.20;;
4452;SDS011;2239;48.152;11.584;2023-06-19T07:00:26;7.57;;;4.20;;
4452;SDS011;2239;48.152;11.584;2023-06-19T07:02:52;7.93;;;3.37;;
4452;SDS011;2239;48.152;11.584;2023-06-19T07:05:18;6.30;;;3.80;;
4452;SDS011;2239;48.152;11.584;2023-06-19T07:07:44;8.75;;;4.70;;
4452;SDS011;2239;48.152;11.584;2023-06-19T07:10:09;8.10;;;4.17;;
4452;SDS011;2239;48.152;11.584;2023-06-19T07:12:35;6.90;;;3.80;;
4452;SDS011;2239;48.152;11.584;2023-06-19T07:15:08;5.67;;;3.17;;
4452;SDS011;2239;48.152;11.584;2023-06-19T07:17:34;8.90;;;3.63;;
4452;SDS011;2239;48.152;11.584;2023-06-19T07:20:00;6.27;;;4.33;;
4452;SDS011;2239;48.152;11.584;2023-06-19T07:22:25;6.57;;;3.47;;
4452;SDS011;2239;48.152;11.584;2023-06-19T07:24:51;6.17;;;4.33;;
4452;SDS011;2239;48.152;11.584;2023-06-19T07:27:16;6.33;;;3.20;;
4452;SDS011;2239;48.152;11.584;2023-06-19T07:29:43;5.37;;;3.10;;
4452;SDS011;2239;48.152;11.584;2023-06-19T07:32:09;7.73;;;3.50;;
4452;SDS011;2239;48.152;11.584;2023-06-19T07:34:35;6.67;;;3.43;;
4452;SDS011;2239;48.152;11.584;2023-06-19T07:37:02;7.20;;;3.90;;
4452;SDS011;2239;48.152;11.584;2023-06-19T07:39:28;6.63;;;2.80;;
4452;SDS011;2239;48.152;11.584;2023-06-19T07:41:53;5.67;;;3.03;;
4452;SDS011;2239;48.152;11.584;2023-06-19T07:44:19;7.43;;;3.90;;
4452;SDS011;2239;48.152;11.584;2023-06-19T07:46:46;5.40;;;3.30;;
4452;SDS011;2239;48.152;11.584;2023-06-19T07:49:11;5.17;;;2.80;;
4452;SDS011;2239;48.152;11.584;2023-06-19T07:51:37;5.37;;;3.10;;
4452;SDS011;2239;48.152;11.584;2023-06-19T07:54:02;6.70;;;3.63;;
4452;SDS011;2239;48.152;11.584;2023-06-19T07:56:28;6.50;;;3.67;;
4452;SDS011;2239;48.152;11.584;2023-06-19T07:58:54;11.73;;;4.00;;
4452;SDS011;2239;48.152;11.584;2023-06-19T08:01:19;3.63;;;2.70;;
4452;SDS011;2239;48.152;11.584;2023-06-19T08:03:45;5.07;;;2.63;;
4452;SDS011;2239;48.152;11.584;2023-06-19T08:06:11;5.30;;;3.17;;
4452;SDS011;2239;48.152;11.584;2023-06-19T08:08:36;6.87;;;3.60;;
4452;SDS011;2239;48.152;11.584;2023-06-19T08:11:02;6.43;;;3.30;;
4452;SDS011;2239;48.152;11.584;2023-06-19T08:13:28;4.53;;;3.10;;
4452;SDS011;2239;48.152;11.584;2023-06-19T08:15:53;5.47;;;2.97;;
4452;SDS011;2239;48.152;11.584;2023-06-19T08:18:19;4.77;;;3.30;;
4452;SDS011;2239;48.152;11.584;2023-06-19T08:20:44;4.40;;;2.60;;
4452;SDS011;2239;48.152;11.584;2023-06-19T08:23:10;6.53;;;3.17;;
4452;SDS011;2239;48.152;11.584;2023-06-19T08:25:35;6.60;;;3.27;;
4452;SDS011;2239;48.152;11.584;2023-06-19T08:28:01;7.87;;;3.77;;
4452;SDS011;2239;48.152;11.584;2023-06-19T08:30:29;7.50;;;3.30;;
4452;SDS011;2239;48.152;11.584;2023-06-19T08:32:55;6.70;;;3.60;;
4452;SDS011;2239;48.152;11.584;2023-06-19T08:35:20;5.43;;;2.67;;
4452;SDS011;2239;48.152;11.584;2023-06-19T08:37:46;4.97;;;2.50;;
4452;SDS011;2239;48.152;11.584;2023-06-19T08:40:12;5.90;;;2.80;;
4452;SDS011;2239;48.152;11.584;2023-06-19T08:42:37;5.47;;;2.80;;
4452;SDS011;2239;48.152;11.584;2023-06-19T08:45:05;5.57;;;3.00;;
4452;SDS011;2239;48.152;11.584;2023-06-19T08:47:31;4.57;;;2.70;;
4452;SDS011;2239;48.152;11.584;2023-06-19T08:49:58;4.40;;;2.37;;
4452;SDS011;2239;48.152;11.584;2023-06-19T08:52:24;5.30;;;3.03;;
4452;SDS011;2239;48.152;11.584;2023-06-19T08:54:50;4.40;;;2.70;;
4452;SDS011;2239;48.152;11.584;2023-06-19T08:57:15;3.43;;;2.50;;
4452;SDS011;2239;48.152;11.584;2023-06-19T08:59:47;4.60;;;2.90;;
4452;SDS011;2239;48.152;11.584;2023-06-19T09:02:14;4.40;;;2.53;;
4452;SDS011;2239;48.152;11.584;2023-06-19T09:04:40;3.97;;;2.50;;
4452;SDS011;2239;48.152;11.584;2023-06-19T09:07:07;3.43;;;1.80;;
4452;SDS011;2239;48.152;11.584;2023-06-19T09:09:33;1.90;;;1.40;;
4452;SDS011;2239;48.152;11.584;2023-06-19T09:11:59;2.27;;;1.47;;
4452;SDS011;2239;48.152;11.584;2023-06-19T09:14:33;1.80;;;1.40;;
4452;SDS011;2239;48.152;11.584;2023-06-19T09:17:06;3.60;;;1.90;;
4452;SDS011;2239;48.152;11.584;2023-06-19T09:19:36;3.90;;;1.67;;
4452;SDS011;2239;48.152;11.584;2023-06-19T09:22:05;2.83;;;1.97;;
4452;SDS011;2239;48.152;11.584;2023-06-19T09:24:34;3.67;;;1.77;;
4452;SDS011;2239;48.152;11.584;2023-06-19T09:27:11;3.53;;;1.80;;
4452;SDS011;2239;48.152;11.584;2023-06-19T09:29:41;4.03;;;2.03;;
4452;SDS011;2239;48.152;11.584;2023-06-19T09:34:46;3.93;;;2.20;;
4452;SDS011;2239;48.152;11.584;2023-06-19T09:37:14;4.60;;;1.90;;
4452;SDS011;2239;48.152;11.584;2023-06-19T09:39:40;3.73;;;2.10;;
4452;SDS011;2239;48.152;11.584;2023-06-19T09:42:06;4.03;;;2.70;;
4452;SDS011;2239;48.152;11.584;2023-06-19T09:44:36;4.57;;;2.47;;
4452;SDS011;2239;48.152;11.584;2023-06-19T09:47:07;3.20;;;2.30;;
4452;SDS011;2239;48.152;11.584;2023-06-19T09:49:49;4.23;;;2.50;;
4452;SDS011;2239;48.152;11.584;2023-06-19T09:52:19;4.60;;;2.90;;
4452;SDS011;2239;48.152;11.584;2023-06-19T09:54:47;4.93;;;2.90;;
4452;SDS011;2239;48.152;11.584;2023-06-19T09:57:14;4.10;;;2.93;;
4452;SDS011;2239;48.152;11.584;2023-06-19T09:59:40;4.87;;;3.13;;
4452;SDS011;2239;48.152;11.584;2023-06-19T10:02:07;6.20;;;3.27;;
4452;SDS011;2239;48.152;11.584;2023-06-19T10:04:51;5.17;;;3.10;;
4452;SDS011;2239;48.152;11.584;2023-06-19T10:07:24;4.67;;;2.70;;
4452;SDS011;2239;48.152;11.584;2023-06-19T10:12:36;4.70;;;3.27;;
4452;SDS011;2239;48.152;11.584;2023-06-19T10:15:15;8.50;;;3.60;;
4452;SDS011;2239;48.152;11.584;2023-06-19T10:17:46;4.30;;;2.80;;
4452;SDS011;2239;48.152;11.584;2023-06-19T10:22:56;4.60;;;2.70;;
4452;SDS011;2239;48.152;11.584;2023-06-19T10:25:32;6.50;;;3.60;;
4452;SDS011;2239;48.152;11.584;2023-06-19T10:28:21;6.17;;;3.07;;
4452;SDS011;2239;48.152;11.584;2023-06-19T10:33:26;5.57;;;2.90;;
4452;SDS011;2239;48.152;11.584;2023-06-19T10:35:53;4.93;;;2.90;;
4452;SDS011;2239;48.152;11.584;2023-06-19T10:38:19;5.40;;;3.40;;
4452;SDS011;2239;48.152;11.584;2023-06-19T10:40:45;7.50;;;3.70;;
4452;SDS011;2239;48.152;11.584;2023-06-19T10:43:12;4.47;;;3.50;;
4452;SDS011;2239;48.152;11.584;2023-06-19T10:45:44;4.53;;;3.17;;
4452;SDS011;2239;48.152;11.584;2023-06-19T10:48:10;4.17;;;2.90;;
4452;SDS011;2239;48.152;11.584;2023-06-19T10:50:41;4.87;;;2.87;;
4452;SDS011;2239;48.152;11.584;2023-06-19T10:53:07;3.90;;;2.80;;
4452;SDS011;2239;48.152;11.584;2023-06-19T10:55:33;4.97;;;3.07;;
4452;SDS011;2239;48.152;11.584;2023-06-19T10:57:58;3.90;;;2.80;;
4452;SDS011;2239;48.152;11.584;2023-06-19T11:00:28;5.17;;;2.53;;
4452;SDS011;2239;48.152;11.584;2023-06-19T11:02:55;5.43;;;2.40;;
4452;SDS011;2239;48.152;11.584;2023-06-19T11:05:22;5.17;;;3.00;;
4452;SDS011;2239;48.152;11.584;2023-06-19T11:07:58;6.87;;;2.63;;
4452;SDS011;2239;48.152;11.584;2023-06-19T11:10:25;4.57;;;2.70;;
4452;SDS011;2239;48.152;11.584;2023-06-19T11:12:55;3.90;;;2.50;;
4452;SDS011;2239;48.152;11.584;2023-06-19T11:15:31;5.90;;;2.90;;
4452;SDS011;2239;48.152;11.584;2023-06-19T11:18:02;5.03;;;2.87;;
4452;SDS011;2239;48.152;11.584;2023-06-19T11:20:27;3.60;;;2.50;;
4452;SDS011;2239;48.152;11.584;2023-06-19T11:22:54;4.77;;;2.80;;
4452;SDS011;2239;48.152;11.584;2023-06-19T11:25:22;3.77;;;2.27;;
4452;SDS011;2239;48.152;11.584;2023-06-19T11:27:47;3.87;;;2.13;;
4452;SDS011;2239;48.152;11.584;2023-06-19T11:30:17;4.87;;;2.33;;
4452;SDS011;2239;48.152;11.584;2023-06-19T11:32:45;4.00;;;2.47;;
4452;SDS011;2239;48.152;11.584;2023-06-19T11:35:13;3.10;;;2.50;;
4452;SDS011;2239;48.152;11.584;2023-06-19T11:37:41;4.60;;;2.80;;
4452;SDS011;2239;48.152;11.584;2023-06-19T11:40:08;3.20;;;2.30;;
4452;SDS011;2239;48.152;11.584;2023-06-19T11:42:49;5.33;;;3.10;;
4452;SDS011;2239;48.152;11.584;2023-06-19T11:45:17;3.67;;;2.77;;
4452;SDS011;2239;48.152;11.584;2023-06-19T11:47:44;7.20;;;2.43;;
4452;SDS011;2239;48.152;11.584;2023-06-19T11:50:11;4.00;;;2.67;;
4452;SDS011;2239;48.152;11.584;2023-06-19T11:52:37;4.03;;;2.50;;
4452;SDS011;2239;48.152;11.584;2023-06-19T11:55:03;5.33;;;2.17;;
4452;SDS011;2239;48.152;11.584;2023-06-19T11:57:29;3.30;;;2.40;;
4452;SDS011;2239;48.152;11.584;2023-06-19T11:59:55;3.57;;;2.37;;
4452;SDS011;2239;48.152;11.584;2023-06-19T12:02:21;4.53;;;2.30;;
4452;SDS011;2239;48.152;11.584;2023-06-19T12:04:46;3.90;;;2.63;;
4452;SDS011;2239;48.152;11.584;2023-06-19T12:07:12;4.30;;;2.47;;
4452;SDS011;2239;48.152;11.584;2023-06-19T12:09:37;5.00;;;2.43;;
4452;SDS011;2239;48.152;11.584;2023-06-19T12:12:04;4.70;;;3.13;;
4452;SDS011;2239;48.152;11.584;2023-06-19T12:14:30;3.37;;;1.93;;
4452;SDS011;2239;48.152;11.584;2023-06-19T12:16:56;4.90;;;2.67;;
4452;SDS011;2239;48.152;11.584;2023-06-19T12:19:21;3.53;;;2.40;;
4452;SDS011;2239;48.152;11.584;2023-06-19T12:21:47;5.43;;;2.77;;
4452;SDS011;2239;48.152;11.584;2023-06-19T12:24:13;4.30;;;2.57;;
4452;SDS011;2239;48.152;11.584;2023-06-19T12:26:38;6.93;;;1.97;;
4452;SDS011;2239;48.152;11.584;2023-06-19T12:29:05;4.00;;;2.60;;
4452;SDS011;2239;48.152;11.584;2023-06-19T12:31:32;3.83;;;2.30;;
4452;SDS011;2239;48.152;11.584;2023-06-19T12:33:58;6.03;;;2.50;;
4452;SDS011;2239;48.152;11.584;2023-06-19T12:36:24;4.83;;;2.40;;
4452;SDS011;2239;48.152;11.584;2023-06-19T12:38:51;2.70;;;1.80;;
4452;SDS011;2239;48.152;11.584;2023-06-19T12:41:18;3.83;;;2.43;;
4452;SDS011;2239;48.152;11.584;2023-06-19T12:43:47;3.47;;;2.00;;
4452;SDS011;2239;48.152;11.584;2023-06-19T12:46:13;3.60;;;2.50;;
4452;SDS011;2239;48.152;11.584;2023-06-19T12:48:39;3.07;;;2.00;;
4452;SDS011;2239;48.152;11.584;2023-06-19T12:51:05;3.13;;;2.40;;
4452;SDS011;2239;48.152;11.584;2023-06-19T12:53:31;3.13;;;2.10;;
4452;SDS011;2239;48.152;11.584;2023-06-19T12:55:57;5.03;;;2.40;;
4452;SDS011;2239;48.152;11.584;2023-06-19T12:58:23;3.63;;;2.40;;
4452;SDS011;2239;48.152;11.584;2023-06-19T13:00:48;2.50;;;1.80;;
4452;SDS011;2239;48.152;11.584;2023-06-19T13:03:14;2.80;;;2.10;;
4452;SDS011;2239;48.152;11.584;2023-06-19T13:05:39;4.83;;;2.27;;
4452;SDS011;2239;48.152;11.584;2023-06-19T13:08:05;3.40;;;2.30;;
4452;SDS011;2239;48.152;11.584;2023-06-19T13:10:30;3.50;;;2.10;;
4452;SDS011;2239;48.152;11.584;2023-06-19T13:12:56;3.60;;;2.27;;
4452;SDS011;2239;48.152;11.584;2023-06-19T13:15:23;4.63;;;2.23;;
4452;SDS011;2239;48.152;11.584;2023-06-19T13:17:49;5.00;;;2.43;;
4452;SDS011;2239;48.152;11.584;2023-06-19T13:20:15;5.60;;;2.20;;
4452;SDS011;2239;48.152;11.584;2023-06-19T13:22:41;3.20;;;2.17;;
4452;SDS011;2239;48.152;11.584;2023-06-19T13:25:07;4.27;;;2.37;;
4452;SDS011;2239;48.152;11.584;2023-06-19T13:27:33;4.83;;;2.63;;
4452;SDS011;2239;48.152;11.584;2023-06-19T13:29:59;4.40;;;2.33;;
4452;SDS011;2239;48.152;11.584;2023-06-19T13:32:25;3.50;;;2.43;;
4452;SDS011;2239;48.152;11.584;2023-06-19T13:34:51;3.60;;;1.90;;
4452;SDS011;2239;48.152;11.584;2023-06-19T13:37:17;4.10;;;1.87;;
4452;SDS011;2239;48.152;11.584;2023-06-19T13:39:43;3.60;;;2.20;;
4452;SDS011;2239;48.152;11.584;2023-06-19T13:42:09;3.67;;;2.27;;
4452;SDS011;2239;48.152;11.584;2023-06-19T13:44:34;3.30;;;2.10;;
4452;SDS011;2239;48.152;11.584;2023-06-19T13:47:00;2.80;;;1.87;;
4452;SDS011;2239;48.152;11.584;2023-06-19T13:49:26;4.90;;;2.70;;
4452;SDS011;2239;48.152;11.584;2023-06-19T13:51:51;3.63;;;2.30;;
4452;SDS011;2239;48.152;11.584;2023-06-19T13:54:17;3.40;;;2.43;;
4452;SDS011;2239;48.152;11.584;2023-06-19T13:56:43;3.03;;;2.10;;
4452;SDS011;2239;48.152;11.584;2023-06-19T13:59:08;6.60;;;2.60;;
4452;SDS011;2239;48.152;11.584;2023-06-19T14:01:34;3.50;;;2.00;;
4452;SDS011;2239;48.152;11.584;2023-06-19T14:03:59;3.10;;;2.13;;
4452;SDS011;2239;48.152;11.584;2023-06-19T14:06:25;2.93;;;2.07;;
4452;SDS011;2239;48.152;11.584;2023-06-19T14:08:51;2.87;;;2.20;;
4452;SDS011;2239;48.152;11.584;2023-06-19T14:11:17;2.90;;;1.93;;
4452;SDS011;2239;48.152;11.584;2023-06-19T14:13:43;3.40;;;2.40;;
4452;SDS011;2239;48.152;11.584;2023-06-19T14:16:09;1.77;;;1.67;;
4452;SDS011;2239;48.152;11.584;2023-06-19T14:18:34;3.00;;;2.30;;
4452;SDS011;2239;48.152;11.584;2023-06-19T14:21:02;2.80;;;2.10;;
4452;SDS011;2239;48.152;11.584;2023-06-19T14:23:28;3.00;;;2.20;;
4452;SDS011;2239;48.152;11.584;2023-06-19T14:25:53;2.40;;;2.10;;
4452;SDS011;2239;48.152;11.584;2023-06-19T14:28:19;3.43;;;2.33;;
4452;SDS011;2239;48.152;11.584;2023-06-19T14:30:44;2.73;;;2.17;;
4452;SDS011;2239;48.152;11.584;2023-06-19T14:33:10;3.00;;;2.17;;
4452;SDS011;2239;48.152;11.584;2023-06-19T14:35:40;2.90;;;2.10;;
4452;SDS011;2239;48.152;11.584;2023-06-19T14:38:11;5.30;;;2.30;;
4452;SDS011;2239;48.152;11.584;2023-06-19T14:40:37;6.70;;;2.50;;
4452;SDS011;2239;48.152;11.584;2023-06-19T14:43:03;3.40;;;2.30;;
4452;SDS011;2239;48.152;11.584;2023-06-19T14:45:29;3.03;;;1.93;;
4452;SDS011;2239;48.152;11.584;2023-06-19T14:47:54;3.77;;;2.27;;
4452;SDS011;2239;48.152;11.584;2023-06-19T14:50:20;3.60;;;2.50;;
4452;SDS011;2239;48.152;11.584;2023-06-19T14:52:45;3.93;;;2.90;;
4452;SDS011;2239;48.152;11.584;2023-06-19T14:55:11;4.90;;;2.57;;
4452;SDS011;2239;48.152;11.584;2023-06-19T14:57:37;5.20;;;2.80;;
4452;SDS011;2239;48.152;11.584;2023-06-19T15:00:02;4.20;;;2.40;;
4452;SDS011;2239;48.152;11.584;2023-06-19T15:02:30;4.07;;;2.43;;
4452;SDS011;2239;48.152;11.584;2023-06-19T15:04:56;5.20;;;3.30;;
4452;SDS011;2239;48.152;11.584;2023-06-19T15:07:21;5.10;;;2.57;;